Time;durP1;ratioP1;P1;durP2;ratioP2;P2;SDS_P1;SDS_P2;PMS_P1;PMS_P2;Temp;Humidity;BMP_temperature;BMP_pressure;BME280_temperature;BME280_humidity;BME280_pressure;Samples;Min_cycle;Max_cycle;Signal;HPM_P1;HPM_P2
2022/05/08 00:00:35;;;;;;;;;;;;;;;9.95;66.21;95643.34;4974248;28;955;-48
2022/05/08 00:03:01;;;;;;;;;;;;;;;9.75;66.56;95636.34;4974503;28;1046;-48
2022/05/08 00:05:27;;;;;;;;;;;;;;;9.62;66.57;95630.47;4974484;28;1034;-48
2022/05/08 00:07:53;;;;;;;;;;;;;;;9.51;67.10;95627.00;4974652;28;976;-48
2022/05/08 00:10:20;;;;;;;;;;;;;;;9.55;66.75;95631.06;4974378;28;962;-48
2022/05/08 00:12:46;;;;;;;;;;;;;;;9.68;66.74;95625.41;4974473;28;1996;-48
2022/05/08 00:15:12;;;;;;;;;;;;;;;9.73;67.10;95619.63;4974122;28;1252;-48
2022/05/08 00:17:38;;;;;;;;;;;;;;;9.74;67.10;95632.00;4973931;28;1077;-48
2022/05/08 00:20:06;;;;;;;;;;;;;;;9.35;67.34;95627.59;4974137;28;1986;-48
2022/05/08 00:22:32;;;;;;;;;;;;;;;9.02;68.21;95644.03;4974496;28;1030;-48
2022/05/08 00:25:02;;;;;;;;;;;;;;;8.87;68.60;95627.56;4974110;28;1021;-48
2022/05/08 00:27:28;;;;;;;;;;;;;;;8.91;68.90;95631.66;4956877;28;1222;-48
2022/05/08 00:29:54;;;;;;;;;;;;;;;8.87;68.87;95632.91;4954650;29;1224;-48
2022/05/08 00:32:21;;;;;;;;;;;;;;;8.93;68.29;95637.69;4954795;28;1034;-48
2022/05/08 00:34:48;;;;;;;;;;;;;;;8.91;68.81;95631.66;4955209;28;985;-48
2022/05/08 00:37:14;;;;;;;;;;;;;;;8.92;68.82;95634.19;4954814;28;1014;-48
2022/05/08 00:39:40;;;;;;;;;;;;;;;9.13;68.51;95628.72;4954880;28;2105;-48
2022/05/08 00:42:06;;;;;;;;;;;;;;;9.18;68.33;95633.59;4954357;29;1033;-48
2022/05/08 00:44:32;;;;;;;;;;;;;;;8.96;68.80;95637.41;4954813;28;992;-47
2022/05/08 00:46:58;;;;;;;;;;;;;;;8.76;69.36;95634.72;4958402;28;1017;-48
2022/05/08 00:49:24;;;;;;;;;;;;;;;8.63;69.49;95634.13;4958409;29;1124;-48
2022/05/08 00:51:51;;;;;;;;;;;;;;;8.58;69.59;95633.72;4958602;29;971;-48
2022/05/08 00:54:17;;;;;;;;;;;;;;;8.75;69.20;95629.53;4958801;28;1047;-48
2022/05/08 00:56:43;;;;;;;;;;;;;;;8.70;69.67;95629.09;4958657;28;957;-48
2022/05/08 00:59:10;;;;;;;;;;;;;;;8.65;69.29;95632.19;4958668;29;2065;-48
2022/05/08 01:01:36;;;;;;;;;;;;;;;8.47;69.52;95632.00;4958626;28;1081;-48
2022/05/08 01:04:03;;;;;;;;;;;;;;;8.39;70.03;95626.47;4958652;29;958;-48
2022/05/08 01:06:30;;;;;;;;;;;;;;;8.50;69.92;95633.53;4958327;28;1033;-47
2022/05/08 01:08:57;;;;;;;;;;;;;;;8.64;69.34;95627.81;4958375;28;1018;-48
2022/05/08 01:11:23;;;;;;;;;;;;;;;8.75;69.14;95627.69;4958361;28;969;-48
2022/05/08 01:13:49;;;;;;;;;;;;;;;8.76;69.36;95623.19;4958229;28;1041;-48
2022/05/08 01:16:16;;;;;;;;;;;;;;;8.66;69.51;95633.03;4957974;28;993;-48
2022/05/08 01:18:44;;;;;;;;;;;;;;;8.73;69.34;95628.84;4956881;29;1990;-48
2022/05/08 01:21:12;;;;;;;;;;;;;;;8.53;69.98;95628.78;4957918;28;1034;-48
2022/05/08 01:23:39;;;;;;;;;;;;;;;8.39;70.36;95627.31;4958465;28;1021;-48
2022/05/08 01:26:05;;;;;;;;;;;;;;;8.36;70.58;95632.91;4963974;28;1232;-48
2022/05/08 01:28:31;;;;;;;;;;;;;;;8.18;70.92;95623.88;4977136;28;1100;-48
2022/05/08 01:30:57;;;;;;;;;;;;;;;8.06;71.25;95630.28;4977388;28;1008;-48
2022/05/08 01:33:24;;;;;;;;;;;;;;;8.14;71.02;95625.97;4977307;28;1008;-47
2022/05/08 01:35:50;;;;;;;;;;;;;;;8.21;71.10;95623.59;4977040;28;990;-48
2022/05/08 01:38:17;;;;;;;;;;;;;;;8.32;70.66;95626.16;4976955;28;1990;-48
2022/05/08 01:40:43;;;;;;;;;;;;;;;8.31;70.41;95624.50;4977067;28;1006;-47
2022/05/08 01:43:12;;;;;;;;;;;;;;;8.17;70.62;95625.69;4977192;28;1004;-48
2022/05/08 01:45:39;;;;;;;;;;;;;;;8.08;70.95;95625.66;4977121;28;981;-48
2022/05/08 01:48:21;;;;;;;;;;;;;;;8.14;70.90;95627.81;4976801;28;1043;-47
2022/05/08 01:50:51;;;;;;;;;;;;;;;8.01;71.22;95623.53;4977057;28;1046;-48
2022/05/08 01:53:18;;;;;;;;;;;;;;;8.02;71.24;95619.91;4976696;28;1052;-48
2022/05/08 01:55:45;;;;;;;;;;;;;;;8.07;71.13;95621.31;4976218;28;1193;-47
2022/05/08 01:58:11;;;;;;;;;;;;;;;7.99;71.18;95625.50;4976529;28;1996;-47
2022/05/08 02:00:37;;;;;;;;;;;;;;;7.79;72.05;95621.03;4976558;28;1029;-47
2022/05/08 02:03:04;;;;;;;;;;;;;;;7.69;72.17;95623.66;4976495;28;1049;-47
2022/05/08 02:05:31;;;;;;;;;;;;;;;7.66;72.42;95617.75;4976513;28;1030;-48
2022/05/08 02:07:59;;;;;;;;;;;;;;;7.76;72.59;95624.00;4976505;28;1864;-48
2022/05/08 02:10:25;;;;;;;;;;;;;;;7.71;72.63;95620.88;4976386;28;1088;-48
2022/05/08 02:12:52;;;;;;;;;;;;;;;7.64;72.91;95620.53;4976552;28;971;-48
2022/05/08 02:15:18;;;;;;;;;;;;;;;7.81;72.33;95630.56;4976327;28;1026;-48
2022/05/08 02:17:44;;;;;;;;;;;;;;;7.99;71.49;95630.81;4976022;28;1068;-48
2022/05/08 02:20:11;;;;;;;;;;;;;;;8.08;71.36;95630.97;4976276;28;1903;-48
2022/05/08 02:22:37;;;;;;;;;;;;;;;8.11;70.79;95630.72;4976119;28;993;-48
2022/05/08 02:25:04;;;;;;;;;;;;;;;7.95;71.36;95629.41;4976530;28;957;-48
2022/05/08 02:27:41;;;;;;;;;;;;;;;7.98;71.28;95631.78;4958374;28;1982;-48
2022/05/08 02:30:11;;;;;;;;;;;;;;;7.98;70.67;95630.94;4956634;28;1251;-48
2022/05/08 02:32:37;;;;;;;;;;;;;;;7.97;71.21;95627.44;4956665;28;1889;-47
2022/05/08 02:35:04;;;;;;;;;;;;;;;7.79;71.11;95624.53;4956922;28;1038;-48
2022/05/08 02:37:30;;;;;;;;;;;;;;;7.38;72.30;95628.06;4956715;28;1156;-48
2022/05/08 02:39:56;;;;;;;;;;;;;;;7.24;72.96;95629.25;4956595;28;1910;-47
2022/05/08 02:42:22;;;;;;;;;;;;;;;7.12;73.70;95623.16;4956606;28;971;-48
2022/05/08 02:44:49;;;;;;;;;;;;;;;7.31;73.07;95629.59;4956591;28;1029;-48
2022/05/08 02:47:15;;;;;;;;;;;;;;;7.49;72.38;95629.84;4956367;28;1037;-48
2022/05/08 02:49:41;;;;;;;;;;;;;;;7.52;72.24;95634.91;4956501;29;947;-48
2022/05/08 02:52:07;;;;;;;;;;;;;;;7.46;72.18;95635.44;4956256;28;1032;-48
2022/05/08 02:54:33;;;;;;;;;;;;;;;7.32;72.30;95633.91;4956702;28;1037;-48
2022/05/08 02:59:44;;;;;;;;;;;;;;;7.54;72.39;95639.13;4956295;29;1914;-48
2022/05/08 03:02:10;;;;;;;;;;;;;;;7.65;72.36;95643.53;4956132;29;1039;-48
2022/05/08 03:04:36;;;;;;;;;;;;;;;7.73;72.83;95646.38;4956144;28;1050;-48
2022/05/08 03:07:02;;;;;;;;;;;;;;;7.55;71.73;95646.16;4955761;28;1861;-48
2022/05/08 03:09:28;;;;;;;;;;;;;;;7.29;72.33;95645.69;4955466;29;1029;-48
2022/05/08 03:11:54;;;;;;;;;;;;;;;7.34;72.49;95642.63;4956291;28;1041;-48
2022/05/08 03:14:20;;;;;;;;;;;;;;;7.43;72.37;95642.69;4955752;28;1014;-48
2022/05/08 03:16:47;;;;;;;;;;;;;;;7.45;72.05;95637.22;4955931;29;1105;-49
2022/05/08 03:19:13;;;;;;;;;;;;;;;7.31;71.99;95637.56;4955829;28;1992;-48
2022/05/08 03:21:40;;;;;;;;;;;;;;;7.13;72.70;95642.59;4955807;28;1033;-48
2022/05/08 03:24:07;;;;;;;;;;;;;;;6.98;73.02;95645.59;4955714;28;1065;-48
2022/05/08 03:26:33;;;;;;;;;;;;;;;6.98;73.22;95645.59;4965566;28;1210;-48
2022/05/08 03:28:59;;;;;;;;;;;;;;;7.06;73.50;95650.25;4974704;28;1097;-48
2022/05/08 03:31:26;;;;;;;;;;;;;;;7.34;72.93;95650.59;4975306;28;1067;-48
2022/05/08 03:33:52;;;;;;;;;;;;;;;7.40;72.15;95648.28;4975097;28;1180;-48
2022/05/08 03:36:18;;;;;;;;;;;;;;;7.35;72.30;95654.97;4975129;28;951;-47
2022/05/08 03:38:45;;;;;;;;;;;;;;;7.34;72.37;95655.91;4974869;28;2019;-47
2022/05/08 03:41:20;;;;;;;;;;;;;;;7.33;72.87;95662.22;4974864;28;1045;-48
2022/05/08 03:43:46;;;;;;;;;;;;;;;7.32;72.96;95665.84;4974750;28;969;-48
2022/05/08 03:46:13;;;;;;;;;;;;;;;7.42;72.49;95674.75;4974810;28;1617;-48
2022/05/08 03:48:40;;;;;;;;;;;;;;;7.46;72.46;95670.88;4974318;28;947;-48
2022/05/08 03:51:06;;;;;;;;;;;;;;;7.58;72.43;95669.81;4975026;28;971;-48
2022/05/08 03:53:32;;;;;;;;;;;;;;;7.84;72.23;95668.59;4974589;28;997;-48
2022/05/08 03:55:58;;;;;;;;;;;;;;;8.03;71.28;95674.00;4974902;28;970;-48
2022/05/08 03:58:24;;;;;;;;;;;;;;;8.08;71.05;95674.47;4974185;28;1910;-48
2022/05/08 04:00:50;;;;;;;;;;;;;;;8.12;70.91;95681.19;4974667;28;1040;-47
2022/05/08 04:03:16;;;;;;;;;;;;;;;8.21;70.80;95687.53;4974636;28;1046;-47
2022/05/08 04:05:42;;;;;;;;;;;;;;;8.30;70.68;95684.06;4974762;28;1142;-47
2022/05/08 04:08:08;;;;;;;;;;;;;;;8.34;70.88;95685.47;4973390;28;1041;-47
2022/05/08 04:10:34;;;;;;;;;;;;;;;8.58;70.30;95685.19;4974426;28;1882;-48
2022/05/08 04:13:00;;;;;;;;;;;;;;;8.77;70.21;95681.72;4974189;28;1077;-49
2022/05/08 04:18:11;;;;;;;;;;;;;;;9.15;69.87;95695.28;4974270;28;1915;-48
2022/05/08 04:20:37;;;;;;;;;;;;;;;9.30;69.26;95685.03;4974088;28;1037;-48
2022/05/08 04:25:52;;;;;;;;;;;;;;;9.57;69.57;95698.50;4970436;28;1159;-49
2022/05/08 04:28:19;;;;;;;;;;;;;;;9.73;68.87;95697.94;4954573;28;1262;-49
2022/05/08 04:30:46;;;;;;;;;;;;;;;9.92;68.70;95698.88;4955278;28;996;-48
2022/05/08 04:33:12;;;;;;;;;;;;;;;10.02;69.05;95694.38;4955184;28;973;-48
2022/05/08 04:35:38;;;;;;;;;;;;;;;10.15;68.47;95694.06;4955090;28;1034;-48
2022/05/08 04:38:04;;;;;;;;;;;;;;;10.35;68.57;95695.69;4955171;29;1915;-48
2022/05/08 04:40:30;;;;;;;;;;;;;;;10.55;67.85;95703.66;4954693;28;1009;-48
2022/05/08 04:42:57;;;;;;;;;;;;;;;10.77;67.35;95707.75;4954726;29;960;-48
2022/05/08 04:45:23;;;;;;;;;;;;;;;11.24;64.77;95701.44;4954877;28;999;-47
2022/05/08 04:47:49;;;;;;;;;;;;;;;11.64;62.64;95705.47;4954847;29;1138;-47
2022/05/08 04:50:15;;;;;;;;;;;;;;;12.05;60.87;95703.16;4955000;28;1038;-47
2022/05/08 04:52:41;;;;;;;;;;;;;;;13.04;58.26;95708.03;4955155;28;971;-48
2022/05/08 04:55:07;;;;;;;;;;;;;;;14.09;55.23;95704.84;4954894;29;959;-48
2022/05/08 04:57:33;;;;;;;;;;;;;;;14.39;53.23;95703.28;4954545;28;1042;-49
2022/05/08 05:00:00;;;;;;;;;;;;;;;14.28;53.94;95710.88;4954528;28;1994;-49
2022/05/08 05:02:26;;;;;;;;;;;;;;;14.20;53.67;95699.09;4954983;28;1013;-49
2022/05/08 05:04:52;;;;;;;;;;;;;;;14.84;53.88;95709.91;4954801;28;1033;-53
2022/05/08 05:07:18;;;;;;;;;;;;;;;15.16;52.39;95712.66;4954910;29;1052;-49
2022/05/08 05:09:44;;;;;;;;;;;;;;;15.57;51.00;95709.72;4954538;28;1025;-48
2022/05/08 05:12:11;;;;;;;;;;;;;;;15.82;50.63;95718.50;4953214;29;1038;-48
2022/05/08 05:14:37;;;;;;;;;;;;;;;15.94;50.18;95721.63;4954712;28;1009;-48
2022/05/08 05:17:03;;;;;;;;;;;;;;;16.35;48.68;95719.44;4954471;29;1105;-47
2022/05/08 05:19:29;;;;;;;;;;;;;;;16.97;47.60;95725.53;4954209;28;1993;-48
2022/05/08 05:21:55;;;;;;;;;;;;;;;17.49;47.18;95719.16;4954695;29;968;-47
2022/05/08 05:24:21;;;;;;;;;;;;;;;17.80;46.07;95718.03;4954466;29;1004;-48
2022/05/08 05:26:47;;;;;;;;;;;;;;;18.00;45.73;95718.22;4965919;28;1152;-48
2022/05/08 05:29:14;;;;;;;;;;;;;;;18.38;44.97;95722.53;4973376;28;1234;-48
2022/05/08 05:31:41;;;;;;;;;;;;;;;18.82;44.07;95718.69;4975565;28;972;-48
2022/05/08 05:34:07;;;;;;;;;;;;;;;19.02;42.67;95721.53;4977336;28;1192;-48
2022/05/08 05:36:33;;;;;;;;;;;;;;;19.04;43.27;95722.19;4977338;28;1021;-47
2022/05/08 05:38:59;;;;;;;;;;;;;;;18.92;44.06;95722.75;4977156;28;1992;-48
2022/05/08 05:41:25;;;;;;;;;;;;;;;19.01;42.76;95714.44;4977063;28;989;-48
2022/05/08 05:43:51;;;;;;;;;;;;;;;18.69;43.45;95717.56;4977200;28;1079;-48
2022/05/08 05:49:01;;;;;;;;;;;;;;;17.83;45.99;95720.34;4977079;28;1029;-48
2022/05/08 05:51:28;;;;;;;;;;;;;;;17.13;46.96;95725.34;4976912;28;977;-48
2022/05/08 05:53:54;;;;;;;;;;;;;;;16.58;48.56;95724.75;4976875;28;995;-56
2022/05/08 05:56:20;;;;;;;;;;;;;;;16.20;49.34;95722.09;4976466;28;1053;-47
2022/05/08 05:58:46;;;;;;;;;;;;;;;15.83;50.84;95719.34;4976938;28;1902;-47
2022/05/08 06:01:12;;;;;;;;;;;;;;;15.59;50.50;95718.47;4976717;28;1028;-47
2022/05/08 06:03:38;;;;;;;;;;;;;;;15.58;51.93;95711.41;4976549;28;1041;-47
2022/05/08 06:06:04;;;;;;;;;;;;;;;15.86;51.63;95718.97;4976779;28;968;-47
2022/05/08 06:08:30;;;;;;;;;;;;;;;15.99;51.18;95711.13;4976563;28;958;-47
2022/05/08 06:10:56;;;;;;;;;;;;;;;15.88;50.80;95711.53;4976291;28;1112;-48
2022/05/08 06:13:23;;;;;;;;;;;;;;;15.84;50.05;95710.22;4976595;28;1001;-47
2022/05/08 06:15:49;;;;;;;;;;;;;;;16.00;51.02;95705.56;4976439;28;951;-47
2022/05/08 06:18:15;;;;;;;;;;;;;;;16.08;50.71;95704.63;4976118;28;1997;-47
2022/05/08 06:20:41;;;;;;;;;;;;;;;16.20;49.39;95700.50;4976435;28;1018;-47
2022/05/08 06:23:07;;;;;;;;;;;;;;;16.56;50.12;95702.50;4976673;28;997;-49
2022/05/08 06:25:33;;;;;;;;;;;;;;;17.04;48.88;95695.94;4974122;28;1170;-47
2022/05/08 06:27:59;;;;;;;;;;;;;;;16.94;47.97;95697.06;4956710;28;1244;-48
2022/05/08 06:30:25;;;;;;;;;;;;;;;17.20;47.42;95690.31;4956684;28;1013;-48
2022/05/08 06:32:51;;;;;;;;;;;;;;;17.50;47.81;95691.06;4957133;29;973;-47
2022/05/08 06:35:17;;;;;;;;;;;;;;;17.75;47.02;95691.53;4956829;28;1015;-48
2022/05/08 06:37:44;;;;;;;;;;;;;;;17.94;47.07;95681.97;4957122;28;954;-48
2022/05/08 06:40:10;;;;;;;;;;;;;;;18.04;46.41;95675.41;4956702;28;1906;-47
2022/05/08 06:42:36;;;;;;;;;;;;;;;18.02;45.38;95682.88;4956360;28;1034;-48
2022/05/08 06:45:02;;;;;;;;;;;;;;;18.05;45.73;95675.22;4956617;28;1220;-48
2022/05/08 06:47:28;;;;;;;;;;;;;;;18.26;45.17;95677.03;4956391;28;1010;-48
2022/05/08 06:49:54;;;;;;;;;;;;;;;18.45;44.89;95675.53;4956873;29;989;-48
2022/05/08 06:52:20;;;;;;;;;;;;;;;18.70;44.45;95675.91;4956342;28;1011;-47
2022/05/08 06:54:47;;;;;;;;;;;;;;;18.96;45.10;95679.00;4956669;28;1035;-48
2022/05/08 06:57:13;;;;;;;;;;;;;;;19.05;45.10;95677.81;4956108;28;1017;-47
2022/05/08 07:02:23;;;;;;;;;;;;;;;19.25;44.46;95672.44;4955064;29;1116;-48
2022/05/08 07:04:49;;;;;;;;;;;;;;;19.25;44.05;95672.44;4956521;28;1047;-48
2022/05/08 07:07:15;;;;;;;;;;;;;;;19.43;43.74;95670.03;4956015;29;955;-47
2022/05/08 07:09:42;;;;;;;;;;;;;;;19.60;42.09;95667.78;4956424;29;972;-47
2022/05/08 07:12:08;;;;;;;;;;;;;;;19.55;42.90;95662.13;4956169;28;996;-47
2022/05/08 07:14:34;;;;;;;;;;;;;;;19.61;43.42;95660.47;4956194;28;1054;-48
2022/05/08 07:17:00;;;;;;;;;;;;;;;19.74;43.33;95657.81;4955888;29;1042;-48
2022/05/08 07:19:26;;;;;;;;;;;;;;;19.92;42.21;95648.22;4955590;29;1914;-48
2022/05/08 07:21:53;;;;;;;;;;;;;;;19.89;42.15;95649.47;4955944;28;924;-48
2022/05/08 07:24:19;;;;;;;;;;;;;;;20.02;42.55;95646.78;4956092;29;958;-48
2022/05/08 07:26:46;;;;;;;;;;;;;;;19.93;40.68;95637.16;4966920;28;1148;-48
2022/05/08 07:29:12;;;;;;;;;;;;;;;20.13;41.92;95644.47;4975080;28;1107;-47
2022/05/08 07:31:38;;;;;;;;;;;;;;;20.41;41.19;95641.53;4974799;28;1101;-47
2022/05/08 07:36:49;;;;;;;;;;;;;;;20.57;40.94;95637.56;4975041;28;1045;-48
2022/05/08 07:39:15;;;;;;;;;;;;;;;20.59;41.07;95636.28;4975213;28;1918;-47
2022/05/08 07:41:41;;;;;;;;;;;;;;;20.46;39.50;95636.31;4974692;28;979;-47
2022/05/08 07:44:07;;;;;;;;;;;;;;;20.48;41.95;95635.06;4974857;28;1875;-47
2022/05/08 07:46:33;;;;;;;;;;;;;;;20.80;41.37;95628.97;4974611;28;1034;-47
2022/05/08 07:48:59;;;;;;;;;;;;;;;20.88;41.26;95630.63;4974549;28;967;-47
2022/05/08 07:51:25;;;;;;;;;;;;;;;20.81;40.17;95633.34;4974766;28;959;-47
2022/05/08 07:53:51;;;;;;;;;;;;;;;20.99;40.93;95630.78;4974478;28;1097;-47
2022/05/08 07:56:17;;;;;;;;;;;;;;;21.17;40.10;95626.53;4974615;28;953;-48
2022/05/08 07:58:43;;;;;;;;;;;;;;;21.23;40.57;95629.22;4974878;28;1918;-47
2022/05/08 08:01:10;;;;;;;;;;;;;;;21.32;40.28;95623.53;4974541;28;1103;-47
2022/05/08 08:03:36;;;;;;;;;;;;;;;21.40;40.77;95628.75;4974629;28;964;-48
2022/05/08 08:06:02;;;;;;;;;;;;;;;21.44;40.53;95630.00;4974722;28;1053;-47
2022/05/08 08:08:28;;;;;;;;;;;;;;;21.47;39.58;95615.94;4974503;28;1031;-47
2022/05/08 08:11:03;;;;;;;;;;;;;;;21.54;41.65;95624.91;4974794;28;1004;-47
2022/05/08 08:13:31;;;;;;;;;;;;;;;21.59;39.07;95618.84;4974443;28;1065;-47
2022/05/08 08:15:58;;;;;;;;;;;;;;;21.55;40.30;95618.44;4974796;28;971;-47
2022/05/08 08:18:24;;;;;;;;;;;;;;;21.63;38.91;95615.44;4973808;28;1918;-47
2022/05/08 08:20:50;;;;;;;;;;;;;;;21.75;39.72;95615.56;4974662;28;1029;-47
2022/05/08 08:23:16;;;;;;;;;;;;;;;21.71;38.36;95614.34;4974339;28;957;-47
2022/05/08 08:25:43;;;;;;;;;;;;;;;21.83;38.76;95603.56;4971415;28;1222;-47
2022/05/08 08:28:09;;;;;;;;;;;;;;;21.82;39.50;95608.19;4954945;28;1084;-48
2022/05/08 08:30:35;;;;;;;;;;;;;;;22.20;38.72;95606.44;4955008;28;971;-47
2022/05/08 08:33:01;;;;;;;;;;;;;;;22.34;37.11;95602.56;4955031;29;987;-47
2022/05/08 08:35:27;;;;;;;;;;;;;;;22.39;37.50;95602.72;4955102;28;1071;-47
2022/05/08 08:37:54;;;;;;;;;;;;;;;22.55;37.04;95609.47;4955065;28;1044;-47
2022/05/08 08:40:20;;;;;;;;;;;;;;;22.56;37.52;95607.59;4954597;28;1902;-47
2022/05/08 08:42:49;;;;;;;;;;;;;;;22.58;35.80;95600.03;4954744;28;1037;-47
2022/05/08 08:48:08;;;;;;;;;;;;;;;22.60;37.06;95603.38;4954464;29;1029;-47
2022/05/08 08:50:35;;;;;;;;;;;;;;;22.48;36.99;95594.25;4954928;28;1050;-47
2022/05/08 08:53:02;;;;;;;;;;;;;;;22.28;36.34;95597.19;4954928;28;965;-47
2022/05/08 08:55:28;;;;;;;;;;;;;;;22.19;38.54;95585.69;4954751;28;1042;-48
2022/05/08 08:57:55;;;;;;;;;;;;;;;22.63;37.83;95593.91;4954830;29;1011;-48
2022/05/08 09:00:24;;;;;;;;;;;;;;;22.48;37.37;95589.66;4954649;28;1907;-47
2022/05/08 09:02:52;;;;;;;;;;;;;;;22.60;35.74;95590.56;4954534;29;1034;-47
2022/05/08 09:05:18;;;;;;;;;;;;;;;22.64;36.15;95588.22;4954853;28;975;-47
2022/05/08 09:07:48;;;;;;;;;;;;;;;22.69;36.90;95593.00;4958061;29;1015;-49
2022/05/08 09:10:21;;;;;;;;;;;;;;;22.90;35.47;95586.28;4958363;28;962;-54
2022/05/08 09:12:53;;;;;;;;;;;;;;;22.99;36.56;95584.88;4958049;28;1033;-47
2022/05/08 09:15:19;;;;;;;;;;;;;;;23.14;36.07;95579.06;4958192;28;1070;-47
2022/05/08 09:17:46;;;;;;;;;;;;;;;23.17;36.05;95571.25;4957922;28;996;-47
2022/05/08 09:20:29;;;;;;;;;;;;;;;23.36;35.33;95572.06;4958465;28;1916;-47
2022/05/08 09:23:14;;;;;;;;;;;;;;;23.38;34.58;95572.66;4958079;28;924;-47
2022/05/08 09:25:44;;;;;;;;;;;;;;;23.38;34.78;95566.38;4960601;28;1160;-47
2022/05/08 09:28:11;;;;;;;;;;;;;;;23.27;34.61;95558.97;4977062;28;1233;-47
2022/05/08 09:30:56;;;;;;;;;;;;;;;23.04;33.75;95555.06;4977532;28;1087;-47
2022/05/08 09:33:25;;;;;;;;;;;;;;;23.00;35.68;95557.38;4977000;28;1135;-47
2022/05/08 09:35:52;;;;;;;;;;;;;;;23.11;35.91;95550.38;4977118;28;1136;-47
2022/05/08 09:38:18;;;;;;;;;;;;;;;23.23;35.11;95552.31;4977068;28;2014;-47
2022/05/08 09:40:47;;;;;;;;;;;;;;;23.34;35.36;95554.25;4977376;28;971;-47
2022/05/08 09:43:36;;;;;;;;;;;;;;;23.38;34.73;95556.28;4977209;28;1021;-47
2022/05/08 09:46:04;;;;;;;;;;;;;;;23.46;33.48;95544.22;4977224;28;1033;-47
2022/05/08 09:48:31;;;;;;;;;;;;;;;23.50;33.99;95537.22;4976726;28;940;-47
2022/05/08 09:50:58;;;;;;;;;;;;;;;23.67;34.05;95537.38;4976900;28;1080;-48
2022/05/08 09:53:25;;;;;;;;;;;;;;;23.47;34.27;95534.16;4976813;28;1039;-55
2022/05/08 09:55:59;;;;;;;;;;;;;;;23.54;33.75;95538.44;4976913;28;1046;-47
2022/05/08 09:58:25;;;;;;;;;;;;;;;23.62;33.33;95533.69;4976608;28;1985;-48
2022/05/08 10:00:52;;;;;;;;;;;;;;;23.69;33.04;95534.41;4976726;28;1040;-48
2022/05/08 10:03:18;;;;;;;;;;;;;;;23.75;32.89;95526.13;4976862;28;1004;-48
2022/05/08 10:05:45;;;;;;;;;;;;;;;23.64;31.78;95521.50;4976745;28;963;-48
2022/05/08 10:08:15;;;;;;;;;;;;;;;23.27;31.40;95520.78;4976614;28;1379;-48
2022/05/08 10:13:54;;;;;;;;;;;;;;;23.00;30.45;95516.50;4976376;28;1022;-48
2022/05/08 10:16:47;;;;;;;;;;;;;;;23.12;32.60;95504.84;4976316;28;1111;-48
2022/05/08 10:19:16;;;;;;;;;;;;;;;23.46;30.85;95506.00;4973579;28;1995;-49
2022/05/08 10:21:57;;;;;;;;;;;;;;;23.41;32.21;95505.03;4976337;28;961;-48
2022/05/08 10:24:26;;;;;;;;;;;;;;;23.62;31.65;95500.94;4976184;28;943;-48
2022/05/08 10:27:09;;;;;;;;;;;;;;;23.63;30.82;95497.97;4964127;28;1247;-48
2022/05/08 10:29:35;;;;;;;;;;;;;;;23.38;30.37;95493.53;4956549;28;1330;-48
2022/05/08 10:32:02;;;;;;;;;;;;;;;23.31;32.11;95486.50;4956896;28;967;-48
2022/05/08 10:34:32;;;;;;;;;;;;;;;23.43;31.22;95490.13;4956941;28;1019;-47
2022/05/08 10:37:11;;;;;;;;;;;;;;;23.50;32.20;95493.56;4956877;28;1117;-47
2022/05/08 10:39:47;;;;;;;;;;;;;;;23.16;33.21;95479.59;4956742;28;1906;-47
2022/05/08 10:42:33;;;;;;;;;;;;;;;23.23;32.79;95479.50;4956724;28;1057;-47
2022/05/08 10:45:00;;;;;;;;;;;;;;;23.17;31.44;95481.25;4956581;28;1077;-47
2022/05/08 10:47:32;;;;;;;;;;;;;;;23.12;30.82;95474.84;4956602;28;1037;-47
2022/05/08 10:49:58;;;;;;;;;;;;;;;23.08;32.05;95477.19;4956532;29;1049;-48
2022/05/08 10:52:25;;;;;;;;;;;;;;;23.11;31.29;95471.28;4956577;28;1050;-47
2022/05/08 10:54:58;;;;;;;;;;;;;;;23.18;31.38;95471.16;4956244;28;1268;-48
2022/05/08 10:57:34;;;;;;;;;;;;;;;23.47;32.01;95466.75;4956301;28;985;-47
2022/05/08 11:00:00;;;;;;;;;;;;;;;23.61;32.20;95456.44;4956502;28;1914;-47
2022/05/08 11:02:43;;;;;;;;;;;;;;;23.74;31.01;95460.84;4956220;28;1897;-47
2022/05/08 11:05:13;;;;;;;;;;;;;;;23.79;30.70;95452.81;4956409;28;943;-47
2022/05/08 11:07:58;;;;;;;;;;;;;;;23.73;30.69;95459.19;4956118;28;1001;-47
2022/05/08 11:10:25;;;;;;;;;;;;;;;23.58;30.60;95452.31;4955979;28;1038;-47
2022/05/08 11:13:00;;;;;;;;;;;;;;;23.58;30.78;95448.72;4956132;29;1117;-47
2022/05/08 11:15:27;;;;;;;;;;;;;;;23.77;30.72;95444.84;4955946;28;1050;-47
2022/05/08 11:18:02;;;;;;;;;;;;;;;23.59;30.31;95453.13;4955907;28;1041;-47
2022/05/08 11:20:29;;;;;;;;;;;;;;;23.58;28.66;95440.53;4955911;28;1902;-47
2022/05/08 11:22:56;;;;;;;;;;;;;;;23.58;30.25;95438.66;4955889;28;1014;-47
2022/05/08 11:25:22;;;;;;;;;;;;;;;23.49;29.33;95437.31;4956045;28;1219;-47
2022/05/08 11:27:52;;;;;;;;;;;;;;;23.39;29.78;95437.06;4975301;28;1192;-48
2022/05/08 11:30:28;;;;;;;;;;;;;;;23.42;29.44;95433.88;4935784;29;1034;-47
2022/05/08 11:38:31;;;;;;;;;;;;;;;23.64;28.52;95425.09;4936578;29;2001;-47
2022/05/08 11:40:57;;;;;;;;;;;;;;;23.42;28.37;95428.41;4936595;29;1042;-47
2022/05/08 11:43:37;;;;;;;;;;;;;;;23.41;28.07;95428.66;4936329;29;1065;-48
2022/05/08 11:46:03;;;;;;;;;;;;;;;23.31;28.86;95421.03;4936427;29;986;-47
2022/05/08 11:48:37;;;;;;;;;;;;;;;23.52;29.60;95420.50;4936332;29;967;-47
2022/05/08 11:51:04;;;;;;;;;;;;;;;23.64;28.11;95415.03;4936389;29;1043;-47
2022/05/08 11:53:49;;;;;;;;;;;;;;;23.63;26.41;95423.47;4936437;29;1042;-47
2022/05/08 11:56:29;;;;;;;;;;;;;;;23.56;26.68;95413.50;4936099;29;1061;-47
2022/05/08 11:58:56;;;;;;;;;;;;;;;23.71;27.44;95417.63;4936447;29;1911;-47
2022/05/08 12:01:35;;;;;;;;;;;;;;;23.72;26.31;95417.41;4936204;29;1038;-47
2022/05/08 12:04:22;;;;;;;;;;;;;;;23.66;25.03;95409.34;4936162;29;1001;-47
2022/05/08 12:07:00;;;;;;;;;;;;;;;23.73;25.75;95410.03;4936266;29;972;-48
2022/05/08 12:09:26;;;;;;;;;;;;;;;23.72;23.91;95408.41;4950805;28;1040;-48
2022/05/08 12:11:53;;;;;;;;;;;;;;;23.67;24.89;95400.06;4936026;29;959;-48
2022/05/08 12:14:28;;;;;;;;;;;;;;;23.63;24.36;95397.00;4936037;29;1058;-48
2022/05/08 12:17:01;;;;;;;;;;;;;;;23.62;25.86;95398.06;4936191;29;968;-48
2022/05/08 12:19:27;;;;;;;;;;;;;;;23.76;24.63;95401.38;4935627;29;1997;-47
2022/05/08 12:21:54;;;;;;;;;;;;;;;23.72;24.68;95394.75;4936094;29;959;-47
2022/05/08 12:24:21;;;;;;;;;;;;;;;23.69;24.28;95393.31;4935941;29;965;-47
2022/05/08 12:26:47;;;;;;;;;;;;;;;23.71;23.62;95385.75;4935662;29;1168;-47
2022/05/08 12:29:21;;;;;;;;;;;;;;;23.79;25.64;95398.22;4958428;28;1092;-47
2022/05/08 12:31:50;;;;;;;;;;;;;;;23.90;25.32;95389.19;4974156;28;1081;-47
2022/05/08 12:34:19;;;;;;;;;;;;;;;23.97;24.53;95387.16;4974280;28;1021;-47
2022/05/08 12:36:46;;;;;;;;;;;;;;;24.07;22.84;95383.81;4974243;28;969;-47
2022/05/08 12:39:12;;;;;;;;;;;;;;;24.05;24.79;95385.94;4974103;28;2008;-47
2022/05/08 12:41:38;;;;;;;;;;;;;;;24.11;24.15;95375.97;4977601;28;955;-47
2022/05/08 12:44:04;;;;;;;;;;;;;;;24.10;24.15;95366.13;4978196;28;1017;-47
2022/05/08 12:46:31;;;;;;;;;;;;;;;24.07;24.38;95364.69;4977889;28;1009;-47
2022/05/08 12:49:03;;;;;;;;;;;;;;;24.00;23.18;95368.63;4978089;28;1031;-47
2022/05/08 12:51:30;;;;;;;;;;;;;;;23.91;21.71;95366.28;4978118;28;1035;-47
2022/05/08 12:53:57;;;;;;;;;;;;;;;23.81;22.93;95355.13;4977935;28;1037;-47
2022/05/08 12:56:24;;;;;;;;;;;;;;;24.05;25.33;95355.91;4977952;28;1022;-47
2022/05/08 13:01:35;;;;;;;;;;;;;;;24.13;25.25;95361.00;4977650;28;1084;-47
2022/05/08 13:04:03;;;;;;;;;;;;;;;24.15;24.47;95355.31;4977940;28;1060;-47
2022/05/08 13:06:29;;;;;;;;;;;;;;;24.00;23.97;95349.50;4977578;28;967;-47
2022/05/08 13:08:55;;;;;;;;;;;;;;;23.90;24.42;95350.13;4977620;28;1081;-48
2022/05/08 13:11:21;;;;;;;;;;;;;;;23.94;24.98;95345.84;4977658;28;977;-48
2022/05/08 13:13:47;;;;;;;;;;;;;;;24.00;24.75;95344.03;4977892;28;1058;-48
2022/05/08 13:16:15;;;;;;;;;;;;;;;24.01;23.95;95345.72;4977754;28;1049;-48
2022/05/08 13:18:41;;;;;;;;;;;;;;;23.97;24.12;95340.72;4977188;28;1995;-48
2022/05/08 13:21:07;;;;;;;;;;;;;;;23.96;23.19;95341.81;4977688;28;1025;-48
2022/05/08 13:23:33;;;;;;;;;;;;;;;23.91;25.49;95336.22;4977224;28;1030;-48
2022/05/08 13:25:59;;;;;;;;;;;;;;;23.99;25.17;95334.19;4977643;28;1214;-48
2022/05/08 13:31:47;;;;;;;;;;;;;;;24.04;25.14;95324.22;4078661;28;2100;-48
2022/05/08 13:34:15;;;;;;;;;;;;;;;24.21;24.41;95323.44;4977211;28;1115;-48
2022/05/08 13:36:41;;;;;;;;;;;;;;;24.23;23.54;95322.16;4977195;28;974;-48
2022/05/08 13:39:07;;;;;;;;;;;;;;;24.23;24.06;95327.59;4977082;28;1989;-48